createdAt,value
2022-12-11T00:01:23.987Z,98159.20
2022-12-11T00:03:50.396Z,98158.80
2022-12-11T00:06:19.323Z,98155.40
2022-12-11T00:08:45.851Z,98155.00
2022-12-11T00:11:14.094Z,98153.60
2022-12-11T00:13:41.098Z,98156.60
2022-12-11T00:16:07.755Z,98154.00
2022-12-11T00:18:34.215Z,98149.00
2022-12-11T00:21:05.418Z,98142.40
2022-12-11T00:23:32.015Z,98143.00
2022-12-11T00:25:58.453Z,98145.40
2022-12-11T00:28:25.920Z,98146.60
2022-12-11T00:30:52.404Z,98148.60
2022-12-11T00:33:18.804Z,98148.20
2022-12-11T00:35:46.191Z,98156.00
2022-12-11T00:38:17.513Z,98152.80
2022-12-11T00:40:44.047Z,98154.00
2022-12-11T00:43:11.215Z,98151.60
2022-12-11T00:45:39.902Z,98157.60
2022-12-11T00:48:06.460Z,98155.20
2022-12-11T00:50:33.189Z,98157.00
2022-12-11T00:52:59.617Z,98160.00
2022-12-11T00:55:28.031Z,98157.80
2022-12-11T00:57:55.349Z,98156.80
2022-12-11T01:00:22.324Z,98153.20
2022-12-11T01:02:49.418Z,98150.00
2022-12-11T01:05:16.335Z,98147.60
2022-12-11T01:07:42.809Z,98147.60
2022-12-11T01:10:24.467Z,98141.60
2022-12-11T01:13:04.367Z,98137.40
2022-12-11T01:15:41.581Z,98128.80
2022-12-11T01:18:10.263Z,98130.00
2022-12-11T01:20:38.823Z,98123.60
2022-12-11T01:23:05.928Z,98120.80
2022-12-11T01:25:32.887Z,98121.80
2022-12-11T01:27:59.331Z,98118.40
2022-12-11T01:30:25.961Z,98118.40
2022-12-11T01:32:52.577Z,98112.80
2022-12-11T01:35:19.059Z,98110.80
2022-12-11T01:37:46.251Z,98109.80
2022-12-11T01:40:14.962Z,98107.20
2022-12-11T01:42:41.327Z,98105.00
2022-12-11T01:45:27.613Z,98098.80
2022-12-11T01:48:09.729Z,98087.20
2022-12-11T01:50:44.621Z,98094.40
2022-12-11T01:53:14.874Z,98095.80
2022-12-11T01:55:41.267Z,98094.80
2022-12-11T01:58:08.045Z,98091.20
2022-12-11T02:00:34.820Z,98090.00
2022-12-11T02:03:01.247Z,98095.20
2022-12-11T02:05:27.620Z,98095.20
2022-12-11T02:07:57.695Z,98087.60
2022-12-11T02:10:31.237Z,98079.00
2022-12-11T02:13:07.097Z,98073.60
2022-12-11T02:15:50.298Z,98072.80
2022-12-11T02:18:55.045Z,98077.40
2022-12-11T02:21:28.026Z,98080.20
2022-12-11T02:24:22.811Z,98075.40
2022-12-11T02:27:17.490Z,98074.60
2022-12-11T02:29:58.164Z,98066.60
2022-12-11T02:32:43.540Z,98078.20
2022-12-11T02:35:17.088Z,98074.60
2022-12-11T02:37:44.582Z,98075.00
2022-12-11T02:40:12.918Z,98070.80
2022-12-11T02:42:41.311Z,98076.20
2022-12-11T02:45:08.901Z,98076.60
2022-12-11T02:47:35.522Z,98075.00
2022-12-11T02:50:02.023Z,98076.60
2022-12-11T02:52:29.416Z,98071.20
2022-12-11T02:54:56.327Z,98073.00
2022-12-11T02:57:44.832Z,98075.60
2022-12-11T03:00:11.808Z,98080.80
2022-12-11T03:02:38.578Z,98082.80
2022-12-11T03:05:05.411Z,98081.00
2022-12-11T03:07:34.492Z,98083.20
2022-12-11T03:10:00.919Z,98082.40
2022-12-11T03:12:31.920Z,98080.60
2022-12-11T03:15:00.238Z,98077.20
2022-12-11T03:17:32.580Z,98079.40
2022-12-11T03:20:24.821Z,98076.40
2022-12-11T03:22:58.418Z,98073.00
2022-12-11T03:25:33.203Z,98073.00
2022-12-11T03:28:34.630Z,98070.20
2022-12-11T03:31:04.845Z,98069.00
2022-12-11T03:33:35.955Z,98069.40
2022-12-11T03:36:12.119Z,98064.40
2022-12-11T03:38:42.170Z,98056.80
2022-12-11T03:41:08.718Z,98052.20
2022-12-11T03:43:35.097Z,98058.20
2022-12-11T03:46:03.134Z,98056.20
2022-12-11T03:48:32.871Z,98060.00
2022-12-11T03:51:00.979Z,98060.20
2022-12-11T03:53:27.326Z,98054.80
2022-12-11T03:55:53.805Z,98058.20
2022-12-11T03:58:20.188Z,98057.60
2022-12-11T04:00:46.910Z,98061.80
2022-12-11T04:03:14.237Z,98060.60
2022-12-11T04:05:49.008Z,98054.00
2022-12-11T04:08:16.944Z,98061.40
2022-12-11T04:10:44.071Z,98063.20
2022-12-11T04:13:10.628Z,98057.20
2022-12-11T04:15:38.949Z,98058.80
2022-12-11T04:18:24.775Z,98061.60
2022-12-11T04:21:13.560Z,98061.60
2022-12-11T04:23:58.897Z,98067.40
2022-12-11T04:26:25.332Z,98063.60
2022-12-11T04:28:51.699Z,98058.60
2022-12-11T04:31:20.432Z,98062.00
2022-12-11T04:33:47.341Z,98052.40
2022-12-11T04:36:13.983Z,98052.40
2022-12-11T04:38:40.342Z,98042.60
2022-12-11T04:41:09.841Z,98039.80
2022-12-11T04:43:36.991Z,98041.00
2022-12-11T04:46:15.671Z,98033.00
2022-12-11T04:48:42.262Z,98033.40
2022-12-11T04:51:09.020Z,98033.40
2022-12-11T04:53:35.837Z,98032.40
2022-12-11T04:56:07.521Z,98028.00
2022-12-11T04:58:35.416Z,98030.80
2022-12-11T05:01:13.432Z,98018.60
2022-12-11T05:03:40.087Z,98024.20
2022-12-11T05:06:07.678Z,98021.80
2022-12-11T05:08:35.312Z,98023.00
2022-12-11T05:11:04.882Z,98020.00
2022-12-11T05:13:32.082Z,98020.20
2022-12-11T05:15:58.605Z,98015.00
2022-12-11T05:18:25.372Z,98013.00
2022-12-11T05:21:00.407Z,98002.00
2022-12-11T05:23:27.000Z,97995.80
2022-12-11T05:25:59.015Z,97995.60
2022-12-11T05:28:27.490Z,98005.60
2022-12-11T05:30:57.230Z,97997.00
2022-12-11T05:33:24.273Z,97992.40
2022-12-11T05:35:50.671Z,97993.40
2022-12-11T05:38:17.109Z,97990.00
2022-12-11T05:40:43.510Z,97984.60
2022-12-11T05:43:09.866Z,97984.80
2022-12-11T05:45:36.249Z,97988.40
2022-12-11T05:48:02.802Z,97983.20
2022-12-11T05:50:30.256Z,97981.60
2022-12-11T05:52:56.646Z,97984.80
2022-12-11T05:55:23.076Z,97981.00
2022-12-11T05:57:50.064Z,97985.00
2022-12-11T06:00:16.568Z,97978.20
2022-12-11T06:02:43.041Z,97983.00
2022-12-11T06:05:09.822Z,97988.40
2022-12-11T06:07:36.400Z,97989.20
2022-12-11T06:10:03.023Z,97991.80
2022-12-11T06:12:30.385Z,97984.20
2022-12-11T06:14:56.755Z,97982.00
2022-12-11T06:17:23.099Z,97987.00
2022-12-11T06:19:49.468Z,97984.80
2022-12-11T06:22:15.933Z,97991.80
2022-12-11T06:24:42.293Z,97992.60
2022-12-11T06:27:08.656Z,97991.80
2022-12-11T06:29:35.038Z,97991.20
2022-12-11T06:32:01.619Z,97986.60
2022-12-11T06:34:28.223Z,97986.00
2022-12-11T06:36:54.650Z,97986.80
2022-12-11T06:39:21.085Z,97984.80
2022-12-11T06:41:47.664Z,97978.40
2022-12-11T06:44:14.055Z,97983.80
2022-12-11T06:46:40.465Z,97987.00
2022-12-11T06:49:06.876Z,97989.20
2022-12-11T06:51:33.346Z,97983.40
2022-12-11T06:53:59.717Z,97987.20
2022-12-11T06:56:26.156Z,97990.80
2022-12-11T06:58:52.647Z,97993.80
2022-12-11T07:01:24.320Z,97992.80
2022-12-11T07:03:55.699Z,97987.60
2022-12-11T07:06:22.237Z,97992.60
2022-12-11T07:08:48.646Z,97992.60
2022-12-11T07:11:17.167Z,97989.00
2022-12-11T07:13:43.779Z,97982.60
2022-12-11T07:16:12.292Z,97984.80
2022-12-11T07:18:40.819Z,97983.80
2022-12-11T07:21:07.502Z,97981.40
2022-12-11T07:23:34.504Z,97971.00
2022-12-11T07:26:12.685Z,97978.80
2022-12-11T07:28:39.152Z,97982.00
2022-12-11T07:31:11.231Z,97975.40
2022-12-11T07:33:37.833Z,97975.80
2022-12-11T07:36:07.432Z,97975.80
2022-12-11T07:38:33.827Z,97975.80
2022-12-11T07:41:01.900Z,97971.40
2022-12-11T07:43:29.514Z,97970.40
2022-12-11T07:46:12.164Z,97967.20
2022-12-11T07:48:39.866Z,97963.40
2022-12-11T07:51:28.569Z,97965.80
2022-12-11T07:53:58.555Z,97969.00
2022-12-11T07:56:25.516Z,97970.00
2022-12-11T07:58:51.986Z,97969.40
2022-12-11T08:01:21.410Z,97968.20
2022-12-11T08:03:48.126Z,97960.40
2022-12-11T08:06:14.712Z,97956.00
2022-12-11T08:08:41.439Z,97958.60
2022-12-11T08:11:12.204Z,97962.60
2022-12-11T08:13:38.953Z,97962.60
2022-12-11T08:16:07.239Z,97963.20
2022-12-11T08:18:36.158Z,97962.80
2022-12-11T08:21:20.159Z,97960.80
2022-12-11T08:23:46.968Z,97964.60
2022-12-11T08:26:17.450Z,97974.80
2022-12-11T08:28:44.040Z,97980.40
2022-12-11T08:31:12.389Z,97985.00
2022-12-11T08:33:39.827Z,97974.00
2022-12-11T08:36:10.404Z,97979.60
2022-12-11T08:38:37.173Z,97969.40
2022-12-11T08:41:11.518Z,97974.20
2022-12-11T08:43:38.236Z,97972.40
2022-12-11T08:46:05.018Z,97962.00
2022-12-11T08:48:31.560Z,97965.20
2022-12-11T08:51:02.342Z,97969.20
2022-12-11T08:53:29.433Z,97965.40
2022-12-11T08:56:07.384Z,97967.20
2022-12-11T08:58:33.864Z,97971.20
2022-12-11T09:01:04.791Z,97963.80
2022-12-11T09:03:31.265Z,97962.80
2022-12-11T09:05:58.886Z,97957.80
2022-12-11T09:08:25.283Z,97954.20
2022-12-11T09:10:52.336Z,97957.40
2022-12-11T09:13:19.065Z,97954.60
2022-12-11T09:15:45.519Z,97960.00
2022-12-11T09:18:12.041Z,97965.00
2022-12-11T09:20:40.670Z,97957.40
2022-12-11T09:23:07.466Z,97952.00
2022-12-11T09:25:33.876Z,97949.60
2022-12-11T09:28:00.920Z,97953.20
2022-12-11T09:30:27.473Z,97959.40
2022-12-11T09:32:53.957Z,97950.00
2022-12-11T09:35:20.457Z,97947.00
2022-12-11T09:37:46.900Z,97939.00
2022-12-11T09:40:13.385Z,97942.60
2022-12-11T09:42:58.018Z,97940.20
2022-12-11T09:45:24.511Z,97930.00
2022-12-11T09:47:55.277Z,97928.80
2022-12-11T09:50:32.206Z,97930.20
2022-12-11T09:53:08.231Z,97926.20
2022-12-11T09:55:59.346Z,97920.80
2022-12-11T09:58:38.911Z,97911.20
2022-12-11T10:01:26.461Z,97907.40
2022-12-11T10:04:35.922Z,97900.80
2022-12-11T10:07:34.579Z,97896.00
2022-12-11T10:10:33.032Z,97894.80
2022-12-11T10:13:23.502Z,97898.00
2022-12-11T10:16:11.846Z,97897.60
2022-12-11T10:18:38.439Z,97892.20
2022-12-11T10:21:06.125Z,97890.60
2022-12-11T10:23:52.790Z,97885.00
2022-12-11T10:26:21.519Z,97887.40
2022-12-11T10:28:48.264Z,97881.20
2022-12-11T10:31:50.574Z,97881.40
2022-12-11T10:34:34.781Z,97879.20
2022-12-11T10:37:01.561Z,97875.00
2022-12-11T10:39:28.038Z,97876.20
2022-12-11T10:41:55.165Z,97872.80
2022-12-11T10:44:29.939Z,97867.60
2022-12-11T10:47:13.276Z,97863.40
2022-12-11T10:49:54.236Z,97860.60
2022-12-11T10:52:44.316Z,97851.80
2022-12-11T10:55:24.486Z,97852.80
2022-12-11T10:58:03.015Z,97854.40
2022-12-11T11:00:37.842Z,97850.00
2022-12-11T11:03:24.222Z,97846.80
2022-12-11T11:06:17.552Z,97843.20
2022-12-11T11:08:58.199Z,97837.20
2022-12-11T11:11:27.380Z,97834.80
2022-12-11T11:14:14.048Z,97835.80
2022-12-11T11:16:42.757Z,97838.60
2022-12-11T11:19:44.601Z,97835.20
2022-12-11T11:22:16.624Z,97826.80
2022-12-11T11:24:53.592Z,97824.40
2022-12-11T11:27:55.712Z,97821.60
2022-12-11T11:30:24.919Z,97818.60
2022-12-11T11:32:57.341Z,97818.40
2022-12-11T11:35:26.186Z,97814.60
2022-12-11T11:38:23.004Z,97815.00
2022-12-11T11:41:14.941Z,97818.00
2022-12-11T11:43:48.309Z,97813.60
2022-12-11T11:46:45.780Z,97798.80
2022-12-11T11:49:12.216Z,97792.80
2022-12-11T11:51:48.520Z,97794.60
2022-12-11T11:54:28.881Z,97787.80
2022-12-11T11:56:56.021Z,97785.60
2022-12-11T11:59:30.635Z,97789.80
2022-12-11T12:01:57.318Z,97785.40
2022-12-11T12:04:25.921Z,97787.60
2022-12-11T12:07:10.673Z,97783.20
2022-12-11T12:09:59.954Z,97784.00
2022-12-11T12:12:53.918Z,97778.80
2022-12-11T12:15:33.712Z,97781.60
2022-12-11T12:18:41.027Z,97781.00
2022-12-11T12:21:36.825Z,97775.40
2022-12-11T12:24:27.957Z,97777.80
2022-12-11T12:27:50.539Z,97781.00
2022-12-11T12:30:17.460Z,97779.20
2022-12-11T12:33:14.876Z,97780.80
2022-12-11T12:36:06.609Z,97782.40
2022-12-11T12:38:55.306Z,97774.60
2022-12-11T12:42:07.437Z,97769.60
2022-12-11T12:44:48.565Z,97768.20
2022-12-11T12:47:15.048Z,97765.60
2022-12-11T12:49:46.436Z,97760.00
2022-12-11T12:52:28.954Z,97770.60
2022-12-11T12:55:15.734Z,97775.80
2022-12-11T12:57:51.672Z,97780.20
2022-12-11T13:00:38.448Z,97781.40
2022-12-11T13:03:31.588Z,97775.00
2022-12-11T13:06:04.308Z,97770.20
2022-12-11T13:08:38.606Z,97775.60
2022-12-11T13:11:08.393Z,97784.80
2022-12-11T13:13:37.916Z,97788.60
2022-12-11T13:16:16.572Z,97789.60
2022-12-11T13:18:46.832Z,97787.60
2022-12-11T13:21:30.323Z,97779.00
2022-12-11T13:24:21.027Z,97782.60
2022-12-11T13:26:48.873Z,97789.20
2022-12-11T13:29:40.016Z,97790.60
2022-12-11T13:32:09.377Z,97799.00
2022-12-11T13:34:40.555Z,97804.40
2022-12-11T13:37:37.992Z,97793.60
2022-12-11T13:40:26.102Z,97793.00
2022-12-11T13:42:55.171Z,97794.40
2022-12-11T13:45:51.626Z,97783.80
2022-12-11T13:48:43.659Z,97788.60
2022-12-11T13:51:21.238Z,97788.00
2022-12-11T13:53:47.811Z,97787.20
2022-12-11T13:56:21.344Z,97784.60
2022-12-11T13:58:48.210Z,97785.80
2022-12-11T14:01:27.169Z,97795.60
2022-12-11T14:03:57.030Z,97791.00
2022-12-11T14:06:24.461Z,97794.00
2022-12-11T14:08:53.049Z,97799.40
2022-12-11T14:11:32.716Z,97808.20
2022-12-11T14:14:02.756Z,97807.40
2022-12-11T14:16:29.375Z,97811.80
2022-12-11T14:19:03.489Z,97804.80
2022-12-11T14:21:29.910Z,97801.80
2022-12-11T14:23:59.709Z,97802.00
2022-12-11T14:26:31.010Z,97800.20
2022-12-11T14:28:58.233Z,97800.20
2022-12-11T14:31:30.489Z,97794.60
2022-12-11T14:34:12.809Z,97790.20
2022-12-11T14:36:39.390Z,97791.00
2022-12-11T14:39:40.136Z,97794.40
2022-12-11T14:42:21.926Z,97792.80
2022-12-11T14:44:53.325Z,97794.00
2022-12-11T14:47:33.670Z,97795.20
2022-12-11T14:50:03.762Z,97792.20
2022-12-11T14:52:38.546Z,97795.20
2022-12-11T14:55:34.376Z,97795.80
2022-12-11T14:58:06.822Z,97798.40
2022-12-11T15:00:35.741Z,97801.60
2022-12-11T15:03:22.518Z,97798.80
2022-12-11T15:05:51.898Z,97795.00
2022-12-11T15:08:25.499Z,97796.20
2022-12-11T15:11:08.733Z,97794.80
2022-12-11T15:13:38.489Z,97798.20
2022-12-11T15:16:06.770Z,97798.00
2022-12-11T15:18:35.713Z,97796.40
2022-12-11T15:21:06.348Z,97803.00
2022-12-11T15:23:38.307Z,97805.20
2022-12-11T15:26:05.148Z,97799.20
2022-12-11T15:28:35.487Z,97803.00
2022-12-11T15:31:32.911Z,97798.60
2022-12-11T15:34:01.684Z,97803.20
2022-12-11T15:36:34.328Z,97809.20
2022-12-11T15:39:01.758Z,97804.60
2022-12-11T15:41:32.549Z,97798.00
2022-12-11T15:44:03.193Z,97802.00
2022-12-11T15:46:30.214Z,97804.20
2022-12-11T15:48:57.129Z,97807.60
2022-12-11T15:51:24.677Z,97788.00
2022-12-11T15:53:51.074Z,97785.80
2022-12-11T15:56:17.739Z,97788.20
2022-12-11T15:58:44.492Z,97794.40
2022-12-11T16:01:11.035Z,97794.40
2022-12-11T16:03:37.628Z,97791.40
2022-12-11T16:06:04.290Z,97791.60
2022-12-11T16:08:30.926Z,97785.40
2022-12-11T16:10:58.775Z,97782.80
2022-12-11T16:13:25.180Z,97782.60
2022-12-11T16:15:54.430Z,97786.00
2022-12-11T16:18:22.359Z,97791.80
2022-12-11T16:20:49.958Z,97785.60
2022-12-11T16:23:17.333Z,97787.00
2022-12-11T16:25:45.247Z,97788.40
2022-12-11T16:28:13.991Z,97783.00
2022-12-11T16:30:40.621Z,97775.60
2022-12-11T16:33:12.340Z,97773.60
2022-12-11T16:35:41.218Z,97779.00
2022-12-11T16:38:09.469Z,97787.20
2022-12-11T16:40:37.211Z,97787.00
2022-12-11T16:43:04.621Z,97792.20
2022-12-11T16:45:31.714Z,97794.80
2022-12-11T16:48:02.690Z,97793.60
2022-12-11T16:50:29.105Z,97798.60
2022-12-11T16:52:56.482Z,97797.00
2022-12-11T16:55:22.948Z,97800.20
2022-12-11T16:57:50.694Z,97797.60
2022-12-11T17:00:17.472Z,97798.20
2022-12-11T17:02:44.153Z,97797.00
2022-12-11T17:05:11.590Z,97800.00
2022-12-11T17:07:39.793Z,97801.20
2022-12-11T17:10:07.650Z,97796.80
2022-12-11T17:12:34.076Z,97798.00
2022-12-11T17:15:00.459Z,97802.40
2022-12-11T17:17:26.872Z,97805.80
2022-12-11T17:19:53.437Z,97805.20
2022-12-11T17:22:19.889Z,97805.00
2022-12-11T17:24:46.373Z,97807.80
2022-12-11T17:27:13.090Z,97809.00
2022-12-11T17:29:39.559Z,97801.80
2022-12-11T17:32:06.226Z,97796.20
2022-12-11T17:34:37.864Z,97805.60
2022-12-11T17:37:05.378Z,97817.20
2022-12-11T17:39:32.193Z,97814.80
2022-12-11T17:41:58.971Z,97816.60
2022-12-11T17:44:26.040Z,97820.60
2022-12-11T17:46:52.720Z,97829.60
2022-12-11T17:49:19.385Z,97827.60
2022-12-11T17:51:47.207Z,97824.00
2022-12-11T17:54:13.963Z,97826.00
2022-12-11T17:56:40.772Z,97825.80
2022-12-11T17:59:07.265Z,97828.20
2022-12-11T18:01:34.107Z,97820.40
2022-12-11T18:04:01.168Z,97816.40
2022-12-11T18:06:27.704Z,97822.40
2022-12-11T18:08:54.237Z,97818.20
2022-12-11T18:11:21.882Z,97817.80
2022-12-11T18:13:48.589Z,97816.60
2022-12-11T18:16:27.661Z,97818.00
2022-12-11T18:18:55.902Z,97822.60
2022-12-11T18:21:28.603Z,97817.80
2022-12-11T18:23:55.245Z,97817.00
2022-12-11T18:26:21.935Z,97815.40
2022-12-11T18:28:49.252Z,97812.80
2022-12-11T18:31:17.674Z,97807.80
2022-12-11T18:33:44.703Z,97805.20
2022-12-11T18:36:14.218Z,97804.20
2022-12-11T18:38:41.486Z,97806.00
2022-12-11T18:41:10.399Z,97808.80
2022-12-11T18:43:36.868Z,97802.80
2022-12-11T18:46:07.005Z,97806.40
2022-12-11T18:48:33.622Z,97810.40
2022-12-11T18:51:00.270Z,97807.20
2022-12-11T18:53:29.152Z,97807.00
2022-12-11T18:56:00.176Z,97805.80
2022-12-11T18:58:27.002Z,97808.20
2022-12-11T19:00:54.260Z,97812.60
2022-12-11T19:03:20.795Z,97807.40
2022-12-11T19:05:47.397Z,97810.80
2022-12-11T19:08:15.971Z,97803.80
2022-12-11T19:10:44.128Z,97796.00
2022-12-11T19:13:11.321Z,97799.00
2022-12-11T19:15:40.580Z,97797.40
2022-12-11T19:18:07.215Z,97794.80
2022-12-11T19:21:03.058Z,97797.40
2022-12-11T19:23:25.725Z,97804.80
2022-12-11T19:25:52.180Z,97803.20
2022-12-11T19:28:18.631Z,97804.40
2022-12-11T19:30:46.891Z,97800.80
2022-12-11T19:33:13.421Z,97794.20
2022-12-11T19:35:41.204Z,97796.60
2022-12-11T19:38:07.823Z,97801.60
2022-12-11T19:40:40.456Z,97795.60
2022-12-11T19:43:08.354Z,97803.20
2022-12-11T19:45:36.420Z,97801.40
2022-12-11T19:48:05.565Z,97803.40
2022-12-11T19:50:35.630Z,97804.20
2022-12-11T19:53:03.081Z,97806.00
2022-12-11T19:55:29.657Z,97811.00
2022-12-11T19:57:56.086Z,97805.00
2022-12-11T20:00:23.056Z,97800.60
2022-12-11T20:02:49.675Z,97798.60
2022-12-11T20:05:18.337Z,97785.80
2022-12-11T20:07:45.065Z,97782.80
2022-12-11T20:10:11.845Z,97779.00
2022-12-11T20:12:38.309Z,97781.20
2022-12-11T20:15:05.695Z,97784.00
2022-12-11T20:17:32.818Z,97781.80
2022-12-11T20:19:59.358Z,97786.00
2022-12-11T20:22:25.758Z,97779.40
2022-12-11T20:24:52.182Z,97769.20
2022-12-11T20:27:18.556Z,97774.20
2022-12-11T20:29:44.993Z,97784.80
2022-12-11T20:32:11.702Z,97786.00
2022-12-11T20:34:38.617Z,97781.60
2022-12-11T20:37:05.195Z,97786.80
2022-12-11T20:39:31.648Z,97790.60
2022-12-11T20:41:58.043Z,97791.20
2022-12-11T20:44:24.489Z,97781.40
2022-12-11T20:46:50.954Z,97778.80
2022-12-11T20:49:17.426Z,97775.00
2022-12-11T20:51:43.905Z,97777.40
2022-12-11T20:54:10.307Z,97776.20
2022-12-11T20:56:36.677Z,97772.60
2022-12-11T20:59:03.178Z,97767.40
2022-12-11T21:01:31.419Z,97760.80
2022-12-11T21:03:58.576Z,97757.80
2022-12-11T21:06:32.834Z,97755.80
2022-12-11T21:09:03.029Z,97755.20
2022-12-11T21:11:29.571Z,97755.80
2022-12-11T21:13:56.035Z,97763.60
2022-12-11T21:16:22.540Z,97758.20
2022-12-11T21:18:49.172Z,97756.40
2022-12-11T21:21:16.034Z,97750.40
2022-12-11T21:23:42.610Z,97756.60
2022-12-11T21:26:09.759Z,97760.00
2022-12-11T21:28:36.388Z,97757.40
2022-12-11T21:31:06.438Z,97756.60
2022-12-11T21:33:33.579Z,97753.20
2022-12-11T21:36:00.488Z,97755.20
2022-12-11T21:38:27.376Z,97755.80
2022-12-11T21:40:54.789Z,97753.60
2022-12-11T21:43:21.310Z,97761.80
2022-12-11T21:46:03.941Z,97759.00
2022-12-11T21:48:31.487Z,97755.40
2022-12-11T21:51:11.220Z,97759.00
2022-12-11T21:53:38.320Z,97755.80
2022-12-11T21:56:13.064Z,97761.20
2022-12-11T21:58:41.470Z,97755.60
2022-12-11T22:01:40.345Z,97751.40
2022-12-11T22:04:08.089Z,97749.00
2022-12-11T22:06:34.893Z,97748.80
2022-12-11T22:09:01.479Z,97751.40
2022-12-11T22:11:30.085Z,97753.60
2022-12-11T22:13:56.525Z,97752.20
2022-12-11T22:16:23.079Z,97752.00
2022-12-11T22:18:49.665Z,97750.40
2022-12-11T22:21:16.247Z,97754.40
2022-12-11T22:23:44.008Z,97752.80
2022-12-11T22:26:18.236Z,97757.20
2022-12-11T22:28:44.758Z,97755.60
2022-12-11T22:31:16.149Z,97753.60
2022-12-11T22:33:42.935Z,97753.20
2022-12-11T22:36:09.668Z,97748.80
2022-12-11T22:38:36.110Z,97752.40
2022-12-11T22:41:18.990Z,97759.00
2022-12-11T22:43:48.947Z,97760.20
2022-12-11T22:46:17.823Z,97759.80
2022-12-11T22:48:44.346Z,97756.00
2022-12-11T22:51:10.809Z,97758.40
2022-12-11T22:57:07.392Z,97760.40
2022-12-11T22:59:36.052Z,97760.80
2022-12-11T23:02:03.805Z,97765.40
2022-12-11T23:04:31.740Z,97764.20
2022-12-11T23:06:59.560Z,97760.20
2022-12-11T23:09:27.299Z,97757.40
2022-12-11T23:11:55.767Z,97758.00
2022-12-11T23:14:23.783Z,97759.20
2022-12-11T23:16:51.803Z,97756.60
2022-12-11T23:19:25.284Z,97759.60
2022-12-11T23:21:53.612Z,97758.20
2022-12-11T23:24:21.338Z,97751.60
2022-12-11T23:26:49.081Z,97759.20
2022-12-11T23:29:16.919Z,97756.00
2022-12-11T23:31:44.734Z,97757.20
2022-12-11T23:34:12.479Z,97756.00
2022-12-11T23:36:40.233Z,97762.00
2022-12-11T23:39:08.466Z,97769.60
2022-12-11T23:41:36.306Z,97763.80
2022-12-11T23:44:04.119Z,97766.80
2022-12-11T23:46:32.950Z,97764.60
2022-12-11T23:49:00.720Z,97760.00
2022-12-11T23:51:28.424Z,97760.20
2022-12-11T23:53:56.928Z,97758.80
2022-12-11T23:56:27.262Z,97757.20
2022-12-11T23:58:55.284Z,97755.20
